Time;durP1;ratioP1;P1;durP2;ratioP2;P2;SDS_P1;SDS_P2;PMS_P1;PMS_P2;Temp;Humidity;BMP_temperature;BMP_pressure;BME280_temperature;BME280_humidity;BME280_pressure;Samples;Min_cycle;Max_cycle;Signal;HPM_P1;HPM_P2
2024/01/30 00:00:36;;;;;;;18.00;12.20;;;;;;;-1.37;71.47;101767.00;107448;1254;68307;-39
2024/01/30 00:03:04;;;;;;;18.00;12.50;;;;;;;-1.41;71.35;101763.97;107462;1254;71475;-40
2024/01/30 00:05:31;;;;;;;18.50;12.00;;;;;;;-1.46;71.24;101760.54;107430;1257;60444;-39
2024/01/30 00:07:59;;;;;;;19.80;12.50;;;;;;;-1.51;71.26;101757.73;107446;1254;60369;-39
2024/01/30 00:10:27;;;;;;;20.20;13.70;;;;;;;-1.56;71.25;101753.73;106706;1253;1003042;-39
2024/01/30 00:12:54;;;;;;;22.10;13.50;;;;;;;-1.59;71.17;101753.48;107447;1254;68492;-39
2024/01/30 00:15:22;;;;;;;18.40;11.20;;;;;;;-1.55;71.16;101757.12;107391;1254;72451;-39
2024/01/30 00:17:52;;;;;;;23.20;11.00;;;;;;;-1.47;70.96;101753.84;107389;1254;59644;-39
2024/01/30 00:20:20;;;;;;;;;;;;;;;-1.45;71.19;101757.99;107508;1254;59321;-39
2024/01/30 00:22:48;;;;;;;15.70;10.40;;;;;;;-1.46;71.40;101758.67;107329;1253;72564;-39
2024/01/30 00:25:15;;;;;;;16.10;10.10;;;;;;;-1.46;71.54;101757.81;107295;1254;68453;-39
2024/01/30 00:27:43;;;;;;;16.10;10.50;;;;;;;-1.46;71.55;101753.02;107298;1256;71088;-39
2024/01/30 00:30:11;;;;;;;17.30;10.90;;;;;;;-1.48;71.69;101748.05;107323;1255;60511;-39
2024/01/30 00:32:39;;;;;;;16.40;10.80;;;;;;;-1.55;71.73;101744.52;107372;1254;60435;-39
2024/01/30 00:35:06;;;;;;;16.40;10.30;;;;;;;-1.58;71.94;101745.69;106662;1259;1003070;-39
2024/01/30 00:37:34;;;;;;;14.60;9.90;;;;;;;-1.53;71.92;101743.81;107418;1254;66156;-39
2024/01/30 00:40:02;;;;;;;14.90;10.10;;;;;;;-1.47;71.85;101744.48;107295;1257;71392;-39
2024/01/30 00:42:30;;;;;;;15.40;10.30;;;;;;;-1.47;71.84;101739.86;107384;1255;60521;-39
2024/01/30 00:44:58;;;;;;;17.50;10.40;;;;;;;-1.49;72.04;101738.44;107418;1254;60460;-39
2024/01/30 00:47:25;;;;;;;16.30;10.90;;;;;;;-1.52;72.23;101735.09;107445;1256;73855;-39
2024/01/30 00:49:53;;;;;;;16.40;11.70;;;;;;;-1.56;72.18;101731.35;107447;1254;67092;-39
2024/01/30 00:52:20;;;;;;;15.20;11.00;;;;;;;-1.61;72.05;101728.22;107465;1254;72429;-39
2024/01/30 00:54:48;;;;;;;17.20;11.00;;;;;;;-1.65;72.11;101727.65;107448;1254;61190;-39
2024/01/30 00:57:15;;;;;;;16.80;10.80;;;;;;;-1.66;72.13;101726.88;106677;1254;1003035;-39
2024/01/30 00:59:43;;;;;;;15.10;10.90;;;;;;;-1.59;72.04;101729.30;107493;1253;73855;-40
2024/01/30 01:02:10;;;;;;;17.30;10.60;;;;;;;-1.56;71.69;101723.79;107453;1254;67419;-39
2024/01/30 01:04:38;;;;;;;17.30;10.80;;;;;;;-1.62;71.71;101721.27;107428;1255;71410;-39
2024/01/30 01:07:05;;;;;;;17.10;11.20;;;;;;;-1.66;71.72;101716.75;106690;1259;1002933;-39
2024/01/30 01:09:33;;;;;;;17.30;11.70;;;;;;;-1.68;71.65;101714.70;107403;1254;60378;-39
2024/01/30 01:12:01;;;;;;;17.40;10.70;;;;;;;-1.71;71.65;101709.72;107451;1254;72089;-39
2024/01/30 01:14:30;;;;;;;16.40;10.60;;;;;;;-1.75;71.70;101709.96;107416;1253;68360;-39
2024/01/30 01:16:58;;;;;;;16.90;11.30;;;;;;;-1.79;71.78;101708.00;107475;1258;71435;-39
2024/01/30 01:19:25;;;;;;;16.50;10.60;;;;;;;-1.79;71.80;101702.78;107452;1253;60349;-39
2024/01/30 01:21:54;;;;;;;15.70;9.80;;;;;;;-1.74;71.83;101702.02;105939;1254;1003810;-39
2024/01/30 01:24:21;;;;;;;15.20;10.40;;;;;;;-1.73;71.88;101698.60;107450;1254;72621;-39
2024/01/30 01:26:49;;;;;;;15.50;10.90;;;;;;;-1.76;71.92;101696.59;107473;1256;67419;-39
2024/01/30 01:29:16;;;;;;;15.20;10.60;;;;;;;-1.79;72.02;101695.17;107455;1256;72726;-39
2024/01/30 01:31:44;;;;;;;15.80;11.10;;;;;;;-1.81;72.02;101697.41;107521;1254;60415;-39
2024/01/30 01:34:12;;;;;;;17.60;11.50;;;;;;;-1.88;71.95;101683.95;107523;1257;59783;-39
2024/01/30 01:36:40;;;;;;;15.80;10.80;;;;;;;-1.86;72.27;101690.72;107543;1253;73811;-39
2024/01/30 01:39:08;;;;;;;13.90;10.20;;;;;;;-1.85;72.08;101683.08;107520;1253;67435;-39
2024/01/30 01:41:36;;;;;;;15.50;10.50;;;;;;;-1.84;72.10;101676.06;107359;1254;70414;-39
2024/01/30 01:44:05;;;;;;;14.40;10.20;;;;;;;-1.87;72.30;101671.19;107511;1254;60405;-39
2024/01/30 01:46:33;;;;;;;17.00;11.30;;;;;;;-1.92;72.49;101662.00;107505;1254;107308;-39
2024/01/30 01:50:28;;;;;;;18.50;11.40;;;;;;;-1.98;72.80;101652.13;104569;1286;600325;-39
2024/01/30 01:52:56;;;;;;;15.50;11.20;;;;;;;-2.03;72.92;101647.93;105712;1269;1003006;-38
2024/01/30 01:55:26;;;;;;;15.50;11.00;;;;;;;-2.00;72.96;101645.06;106474;1267;59382;-38
2024/01/30 01:57:54;;;;;;;16.80;10.80;;;;;;;-1.89;72.60;101641.44;106549;1267;70970;-38
2024/01/30 02:00:21;;;;;;;17.70;11.40;;;;;;;-1.86;72.49;101641.11;106575;1267;68845;-39
2024/01/30 02:02:49;;;;;;;17.60;11.30;;;;;;;-1.86;72.50;101639.08;106611;1270;72682;-38
2024/01/30 02:05:17;;;;;;;17.30;11.60;;;;;;;-1.87;72.27;101638.27;106456;1267;377660;-38
2024/01/30 02:07:44;;;;;;;18.00;11.00;;;;;;;-1.90;72.13;101628.03;106651;1273;60017;-38
2024/01/30 02:10:12;;;;;;;16.20;11.40;;;;;;;-1.95;72.00;101627.80;107134;1257;71093;-38
2024/01/30 02:12:40;;;;;;;16.10;10.90;;;;;;;-2.00;72.09;101631.63;107122;1257;67426;-38
2024/01/30 02:15:08;;;;;;;14.10;10.40;;;;;;;-1.98;71.90;101630.49;107079;1257;72666;-38
2024/01/30 02:17:35;;;;;;;15.30;11.20;;;;;;;-1.96;71.74;101631.98;106996;1261;59634;-38
2024/01/30 02:20:05;;;;;;;15.50;11.20;;;;;;;-2.00;71.86;101628.72;107056;1262;59635;-38
2024/01/30 02:22:33;;;;;;;15.10;11.50;;;;;;;-2.06;71.89;101631.80;107027;1258;72975;-39
2024/01/30 02:25:01;;;;;;;16.80;11.10;;;;;;;-2.10;72.02;101632.95;107054;1257;68375;-38
2024/01/30 02:27:28;;;;;;;16.50;11.80;;;;;;;-2.14;71.97;101629.44;107014;1257;72708;-38
2024/01/30 02:29:56;;;;;;;17.90;11.90;;;;;;;-2.19;72.13;101627.16;107056;1263;59582;-38
2024/01/30 02:32:23;;;;;;;15.20;10.50;;;;;;;-2.19;72.08;101624.86;107095;1264;59669;-39
2024/01/30 02:34:51;;;;;;;13.90;9.90;;;;;;;-2.16;72.00;101619.80;107065;1256;73059;-39
2024/01/30 02:37:18;;;;;;;16.30;11.00;;;;;;;-2.19;72.19;101613.39;107090;1257;68757;-39
2024/01/30 02:39:46;;;;;;;15.50;10.40;;;;;;;-2.27;72.42;101608.76;107032;1260;70111;-39
2024/01/30 02:42:13;;;;;;;14.60;10.60;;;;;;;-2.33;72.60;101606.69;107028;1261;59534;-39
2024/01/30 02:44:41;;;;;;;15.70;10.70;;;;;;;-2.38;72.84;101602.66;107048;1260;59532;-39
2024/01/30 02:47:08;;;;;;;15.00;10.30;;;;;;;-2.43;73.00;101604.91;107020;1258;71853;-39
2024/01/30 02:49:36;;;;;;;15.40;9.80;;;;;;;-2.41;72.83;101606.36;107050;1263;68716;-39
2024/01/30 02:52:03;;;;;;;14.50;10.60;;;;;;;-2.35;72.86;101606.63;107021;1261;72662;-39
2024/01/30 02:54:31;;;;;;;14.50;10.20;;;;;;;-2.36;72.82;101605.13;107055;1260;59573;-39
2024/01/30 02:56:59;;;;;;;18.70;11.30;;;;;;;-2.43;72.80;101605.53;107069;1261;59641;-39
2024/01/30 02:59:26;;;;;;;16.70;11.20;;;;;;;-2.41;72.98;101614.69;106300;1260;1002825;-39
2024/01/30 03:01:53;;;;;;;16.00;10.80;;;;;;;-2.42;73.22;101612.46;106892;1260;67266;-39
2024/01/30 03:04:21;;;;;;;15.80;10.90;;;;;;;-2.45;73.18;101607.45;106898;1260;71456;-39
2024/01/30 03:06:49;;;;;;;15.90;11.30;;;;;;;-2.46;73.23;101600.80;106992;1261;59606;-39
2024/01/30 03:09:17;;;;;;;17.40;11.70;;;;;;;-2.41;73.25;101596.52;106932;1260;60220;-39
2024/01/30 03:11:45;;;;;;;15.30;11.10;;;;;;;-2.39;73.22;101594.45;107060;1260;72249;-39
2024/01/30 03:14:13;;;;;;;15.70;11.60;;;;;;;-2.42;73.35;101593.09;107320;1257;68690;-39
2024/01/30 03:16:40;;;;;;;16.60;11.50;;;;;;;-2.45;73.42;101592.88;107272;1260;72451;-39
2024/01/30 03:19:09;;;;;;;16.70;11.80;;;;;;;-2.49;73.58;101592.22;107329;1257;60103;-39
2024/01/30 03:21:37;;;;;;;18.50;12.40;;;;;;;-2.54;73.63;101591.48;107334;1257;59426;-39
2024/01/30 03:24:05;;;;;;;16.00;11.20;;;;;;;-2.54;73.66;101595.58;107285;1256;71762;-39
2024/01/30 03:26:32;;;;;;;16.60;11.10;;;;;;;-2.46;73.47;101595.66;107285;1258;67344;-39
2024/01/30 03:29:00;;;;;;;16.70;11.80;;;;;;;-2.41;73.32;101592.95;107301;1257;72633;-39
2024/01/30 03:31:27;;;;;;;15.80;11.60;;;;;;;-2.43;73.47;101596.66;107273;1257;59717;-39
2024/01/30 03:33:55;;;;;;;16.80;12.10;;;;;;;-2.42;73.63;101600.85;107319;1258;59378;-39
2024/01/30 03:36:23;;;;;;;15.30;11.30;;;;;;;-2.42;73.44;101602.70;107292;1258;72035;-39
2024/01/30 03:38:50;;;;;;;19.90;12.30;;;;;;;-2.44;73.42;101596.63;107288;1258;68677;-39
2024/01/30 03:41:18;;;;;;;16.50;12.40;;;;;;;-2.47;73.41;101596.23;107311;1256;72967;-39
2024/01/30 03:43:46;;;;;;;18.80;13.00;;;;;;;-2.49;73.40;101588.05;107284;1257;61028;-39
2024/01/30 03:46:14;;;;;;;17.80;12.70;;;;;;;-2.43;73.38;101588.96;107308;1256;59228;-39
2024/01/30 03:48:41;;;;;;;18.20;12.40;;;;;;;-2.34;72.97;101583.29;107319;1257;71817;-39
2024/01/30 03:51:14;;;;;;;16.10;11.50;;;;;;;-2.34;73.00;101581.01;107322;1255;67428;-39
2024/01/30 03:53:42;;;;;;;18.20;12.40;;;;;;;-2.36;72.96;101579.33;107359;1256;72647;-39
2024/01/30 03:56:10;;;;;;;17.10;11.80;;;;;;;-2.39;72.94;101574.98;107334;1255;59734;-39
2024/01/30 03:58:37;;;;;;;15.80;11.40;;;;;;;-2.41;72.80;101576.40;107263;1257;60045;-39
2024/01/30 04:01:04;;;;;;;15.80;11.70;;;;;;;-2.43;72.82;101582.80;106580;1257;1002894;-39
2024/01/30 04:03:32;;;;;;;16.70;11.40;;;;;;;-2.45;72.86;101583.15;107391;1258;68808;-39
2024/01/30 04:06:00;;;;;;;17.40;12.00;;;;;;;-2.47;72.83;101587.98;106564;1256;1003321;-39
2024/01/30 04:08:27;;;;;;;16.40;11.40;;;;;;;-2.41;72.74;101590.19;107266;1256;61205;-39
2024/01/30 04:10:55;;;;;;;15.40;10.80;;;;;;;-2.32;72.52;101592.74;107269;1257;59234;-39
2024/01/30 04:13:23;;;;;;;16.10;11.20;;;;;;;-2.29;72.65;101601.18;107286;1257;72279;-39
2024/01/30 04:15:50;;;;;;;19.40;13.00;;;;;;;-2.28;72.62;101597.73;107342;1257;67391;-39
2024/01/30 04:18:18;;;;;;;21.40;14.00;;;;;;;-2.28;72.55;101591.98;107303;1256;72671;-39
2024/01/30 04:20:45;;;;;;;18.50;13.10;;;;;;;-2.32;72.54;101586.16;107284;1260;59741;-39
2024/01/30 04:23:13;;;;;;;18.90;12.60;;;;;;;-2.38;72.50;101581.70;107278;1257;59567;-39
2024/01/30 04:25:40;;;;;;;16.60;11.70;;;;;;;-2.44;72.50;101580.28;107251;1257;73179;-39
2024/01/30 04:28:08;;;;;;;16.10;11.90;;;;;;;-2.47;72.58;101583.94;107228;1257;68686;-39
2024/01/30 04:30:36;;;;;;;16.70;11.80;;;;;;;-2.41;72.46;101585.00;107101;1257;71458;-39
2024/01/30 04:33:04;;;;;;;16.20;11.10;;;;;;;-2.31;72.29;101584.66;107244;1257;60102;-39
2024/01/30 04:35:32;;;;;;;15.70;11.50;;;;;;;-2.29;72.50;101582.67;107297;1257;59225;-39
2024/01/30 04:37:59;;;;;;;16.30;11.30;;;;;;;-2.29;72.31;101580.21;107296;1257;71792;-39
2024/01/30 04:40:27;;;;;;;14.70;11.00;;;;;;;-2.33;72.41;101583.69;107320;1260;66604;-39
2024/01/30 04:42:54;;;;;;;16.50;12.00;;;;;;;-2.35;72.53;101583.95;107263;1258;71062;-39
2024/01/30 04:45:22;;;;;;;16.40;11.90;;;;;;;-2.38;72.42;101582.11;107237;1257;59714;-39
2024/01/30 04:47:50;;;;;;;17.10;12.00;;;;;;;-2.42;72.54;101581.73;106494;1260;1003482;-39
2024/01/30 04:50:18;;;;;;;18.60;12.30;;;;;;;-2.46;72.59;101582.34;107288;1257;73093;-39
2024/01/30 04:52:46;;;;;;;16.60;9.90;;;;;;;-2.44;72.53;101583.25;107404;1256;67078;-39
2024/01/30 04:55:13;;;;;;;15.70;11.10;;;;;;;-2.39;72.28;101579.20;107287;1256;71435;-39
2024/01/30 04:57:41;;;;;;;19.20;11.30;;;;;;;-2.42;72.55;101573.11;107277;1257;59688;-39
2024/01/30 05:00:09;;;;;;;16.00;11.90;;;;;;;-2.44;72.75;101573.54;107303;1258;59615;-39
2024/01/30 05:02:37;;;;;;;16.80;11.90;;;;;;;-2.43;72.87;101574.20;107235;1255;71832;-39
2024/01/30 05:05:05;;;;;;;16.80;12.20;;;;;;;-2.45;72.72;101574.04;107292;1256;67302;-39
2024/01/30 05:07:33;;;;;;;17.90;12.30;;;;;;;-2.47;72.78;101569.73;107284;1258;72716;-39
2024/01/30 05:10:01;;;;;;;17.00;11.50;;;;;;;-2.49;72.92;101565.79;106550;1257;1002724;-39
2024/01/30 05:12:32;;;;;;;17.10;12.10;;;;;;;-2.49;72.70;101571.42;107281;1258;59526;-39
2024/01/30 05:14:59;;;;;;;18.50;11.60;;;;;;;-2.46;72.55;101571.88;107268;1255;73755;-39
2024/01/30 05:17:27;;;;;;;17.00;11.00;;;;;;;-2.41;72.44;101570.89;107454;1256;68724;-39
2024/01/30 05:19:54;;;;;;;17.30;11.50;;;;;;;-2.43;72.45;101573.30;107263;1256;72740;-39
2024/01/30 05:22:22;;;;;;;19.00;12.50;;;;;;;-2.49;72.65;101576.45;107201;1256;59662;-39
2024/01/30 05:24:49;;;;;;;18.10;12.90;;;;;;;-2.54;72.80;101570.13;107191;1260;59283;-39
2024/01/30 05:27:17;;;;;;;21.80;12.70;;;;;;;-2.60;72.94;101570.92;107194;1255;73170;-39
2024/01/30 05:29:45;;;;;;;18.70;12.90;;;;;;;-2.65;73.02;101571.04;107224;1257;67235;-39
2024/01/30 05:32:13;;;;;;;20.10;12.70;;;;;;;-2.67;72.96;101572.13;107246;1256;71791;-39
2024/01/30 05:34:40;;;;;;;20.60;12.70;;;;;;;-2.66;73.03;101566.75;107312;1256;60051;-39
2024/01/30 05:37:08;;;;;;;17.00;10.90;;;;;;;-2.60;72.89;101568.63;107274;1257;59164;-39
2024/01/30 05:39:36;;;;;;;21.00;12.20;;;;;;;-2.61;73.14;101570.30;107229;1256;73173;-39
2024/01/30 05:42:04;;;;;;;17.80;12.00;;;;;;;-2.63;73.39;101574.70;107271;1256;67570;-39
2024/01/30 05:44:31;;;;;;;21.80;12.60;;;;;;;-2.64;73.51;101577.98;107194;1257;72688;-39
2024/01/30 05:46:59;;;;;;;19.50;12.80;;;;;;;-2.63;73.52;101574.59;107300;1260;59642;-39
2024/01/30 05:49:28;;;;;;;20.90;13.60;;;;;;;-2.65;73.57;101574.55;107247;1255;60018;-39
2024/01/30 05:51:56;;;;;;;19.30;11.90;;;;;;;-2.67;73.48;101570.23;107299;1260;70829;-39
2024/01/30 05:54:23;;;;;;;20.40;12.20;;;;;;;-2.70;73.38;101572.63;107272;1256;68367;-39
2024/01/30 05:56:51;;;;;;;20.20;12.20;;;;;;;-2.68;73.36;101572.83;107269;1255;70528;-39
2024/01/30 05:59:18;;;;;;;17.90;11.70;;;;;;;-2.62;73.21;101573.14;107309;1256;60375;-39
2024/01/30 06:01:49;;;;;;;19.30;12.10;;;;;;;-2.62;73.24;101572.01;107261;1255;60139;-39
2024/01/30 06:04:17;;;;;;;19.00;11.80;;;;;;;-2.68;73.45;101577.77;107308;1260;72652;-39
2024/01/30 06:06:44;;;;;;;19.60;13.20;;;;;;;-2.74;73.58;101575.25;107290;1257;68440;-39
2024/01/30 06:09:12;;;;;;;22.30;13.60;;;;;;;-2.78;73.83;101578.84;107280;1256;72827;-39
2024/01/30 06:11:40;;;;;;;20.40;13.50;;;;;;;-2.80;74.06;101585.25;106568;1256;1003272;-39
2024/01/30 06:14:07;;;;;;;20.00;13.40;;;;;;;-2.81;74.10;101583.52;107169;1256;60556;-39
2024/01/30 06:16:35;;;;;;;20.10;13.60;;;;;;;-2.74;74.00;101588.84;107193;1256;74051;-39
2024/01/30 06:19:03;;;;;;;21.50;13.00;;;;;;;-2.64;73.92;101591.94;107421;1255;67730;-39
2024/01/30 06:21:32;;;;;;;19.00;11.70;;;;;;;-2.59;74.02;101591.98;107263;1255;71815;-39
2024/01/30 06:24:00;;;;;;;17.50;12.00;;;;;;;-2.58;74.09;101588.05;107183;1255;60359;-39
2024/01/30 06:26:27;;;;;;;17.10;11.80;;;;;;;-2.60;74.38;101591.50;107259;1256;60457;-39
2024/01/30 06:28:54;;;;;;;15.30;10.50;;;;;;;-2.62;74.38;101593.84;107233;1260;74352;-39
2024/01/30 06:31:22;;;;;;;16.40;11.10;;;;;;;-2.65;74.46;101595.88;107080;1255;68731;-39
2024/01/30 06:33:50;;;;;;;14.70;10.30;;;;;;;-2.62;74.67;101595.16;107215;1260;72754;-39
2024/01/30 06:36:18;;;;;;;16.30;11.10;;;;;;;-2.54;74.61;101592.19;107250;1260;60322;-40
2024/01/30 06:38:45;;;;;;;16.30;11.10;;;;;;;-2.51;74.87;101594.08;107314;1256;59235;-40
2024/01/30 06:41:13;;;;;;;15.80;10.90;;;;;;;-2.51;75.01;101594.72;107277;1256;73779;-38
2024/01/30 06:43:41;;;;;;;16.30;11.00;;;;;;;-2.52;75.05;101586.20;107308;1260;68435;-38
2024/01/30 06:46:08;;;;;;;18.10;12.30;;;;;;;-2.52;75.24;101583.60;107300;1256;71683;-38
2024/01/30 06:48:36;;;;;;;17.90;11.50;;;;;;;-2.52;75.38;101581.63;107273;1257;61241;-38
2024/01/30 06:51:04;;;;;;;15.20;10.90;;;;;;;-2.44;75.35;101577.51;107294;1256;60364;-38
2024/01/30 06:53:31;;;;;;;16.40;11.10;;;;;;;-2.35;75.19;101577.48;107309;1255;73734;-38
2024/01/30 06:55:59;;;;;;;18.80;12.40;;;;;;;-2.31;75.19;101575.36;107301;1256;68728;-38
2024/01/30 06:58:27;;;;;;;18.00;10.90;;;;;;;-2.32;75.24;101571.65;107296;1256;72277;-38
2024/01/30 07:00:57;;;;;;;18.10;11.70;;;;;;;-2.31;75.04;101571.52;107273;1260;60433;-38
2024/01/30 07:03:25;;;;;;;18.50;11.90;;;;;;;-2.31;74.96;101569.56;107305;1260;60316;-38
2024/01/30 07:05:52;;;;;;;18.40;11.60;;;;;;;-2.25;74.70;101567.20;107414;1256;73865;-39
2024/01/30 07:08:20;;;;;;;16.30;11.50;;;;;;;-2.14;74.32;101567.95;107285;1256;68685;-38
2024/01/30 07:10:48;;;;;;;16.70;11.50;;;;;;;-2.09;74.12;101568.02;107278;1257;72461;-39
2024/01/30 07:13:16;;;;;;;16.90;12.20;;;;;;;-2.08;73.97;101565.40;106536;1257;1003009;-39
2024/01/30 07:15:44;;;;;;;16.10;11.40;;;;;;;-2.09;74.03;101562.67;107326;1255;59592;-39
2024/01/30 07:18:13;;;;;;;19.60;11.60;;;;;;;-2.09;74.22;101561.93;107243;1256;73882;-39
2024/01/30 07:20:46;;;;;;;18.00;10.60;;;;;;;-2.02;74.17;101558.20;107334;1256;68412;-38
2024/01/30 07:23:16;;;;;;;16.70;11.00;;;;;;;-1.90;73.87;101561.40;107294;1255;72739;-38
2024/01/30 07:25:44;;;;;;;;;;;;;;;-1.86;73.39;101562.27;107212;1255;60480;-39
2024/01/30 07:28:18;;;;;;;18.90;11.30;;;;;;;-1.85;73.51;101563.61;107229;1255;60278;-39
2024/01/30 07:30:47;;;;;;;18.20;11.20;;;;;;;-1.84;73.79;101569.71;107332;1255;73892;-39
2024/01/30 07:33:15;;;;;;;15.40;10.70;;;;;;;-1.82;73.31;101563.98;107358;1255;67454;-38
2024/01/30 07:35:43;;;;;;;16.50;10.30;;;;;;;-1.72;73.22;101564.83;107275;1256;72703;-39
2024/01/30 07:38:11;;;;;;;14.30;10.70;;;;;;;-1.61;72.52;101562.99;107301;1255;60377;-38
2024/01/30 07:40:38;;;;;;;16.00;10.80;;;;;;;-1.57;72.44;101562.63;107306;1255;60339;-39
2024/01/30 07:43:08;;;;;;;14.60;10.30;;;;;;;-1.54;72.71;101553.77;107303;1255;73844;-39
2024/01/30 07:45:35;;;;;;;16.90;11.20;;;;;;;-1.49;72.22;101555.92;107259;1256;68317;-39
2024/01/30 07:48:04;;;;;;;14.60;10.00;;;;;;;-1.44;72.05;101548.08;107205;1257;72683;-39
2024/01/30 07:50:32;;;;;;;15.90;10.90;;;;;;;-1.31;71.66;101547.34;107202;1256;59253;-39
2024/01/30 07:53:00;;;;;;;16.00;10.40;;;;;;;-1.18;71.02;101550.48;107291;1256;60303;-39
2024/01/30 07:55:28;;;;;;;15.60;10.00;;;;;;;-1.12;70.59;101550.95;107267;1256;73880;-39
2024/01/30 07:57:56;;;;;;;15.40;10.50;;;;;;;-1.10;70.45;101544.52;107269;1255;68601;-39
2024/01/30 08:00:24;;;;;;;13.90;9.70;;;;;;;-1.04;70.60;101545.67;107261;1255;72730;-39
2024/01/30 08:02:54;;;;;;;16.40;9.80;;;;;;;-0.96;70.59;101543.10;107262;1256;59883;-39
2024/01/30 08:05:23;;;;;;;13.20;9.00;;;;;;;-0.80;69.93;101542.89;107304;1255;60476;-39
2024/01/30 08:07:51;;;;;;;13.60;9.60;;;;;;;-0.63;69.37;101543.13;106584;1255;1002901;-39
2024/01/30 08:10:20;;;;;;;14.40;9.60;;;;;;;-0.54;69.29;101543.77;107259;1256;67467;-39
2024/01/30 08:12:48;;;;;;;16.40;10.40;;;;;;;-0.43;69.24;101539.73;107237;1257;70887;-39
2024/01/30 08:15:15;;;;;;;14.80;10.10;;;;;;;-0.33;68.50;101539.53;107240;1256;60515;-39
2024/01/30 08:17:44;;;;;;;15.10;10.00;;;;;;;-0.29;67.46;101537.69;107280;1260;60091;-39
2024/01/30 08:20:13;;;;;;;14.70;10.30;;;;;;;-0.31;67.08;101542.98;107291;1256;74008;-38
2024/01/30 08:22:41;;;;;;;13.90;9.70;;;;;;;-0.29;67.26;101535.68;107277;1256;68388;-39
2024/01/30 08:25:09;;;;;;;13.10;8.70;;;;;;;-0.20;67.08;101535.59;107257;1255;72714;-39
2024/01/30 08:27:38;;;;;;;13.30;9.40;;;;;;;-0.13;66.94;101534.52;107259;1255;60294;-39
2024/01/30 08:30:07;;;;;;;15.30;10.20;;;;;;;-0.08;66.53;101534.93;107279;1256;60004;-39
2024/01/30 08:32:34;;;;;;;13.80;10.00;;;;;;;-0.05;66.35;101534.10;107333;1256;72618;-39
2024/01/30 08:35:03;;;;;;;13.50;9.40;;;;;;;-0.02;66.14;101532.86;107288;1255;68822;-39
2024/01/30 08:37:31;;;;;;;14.50;9.50;;;;;;;0.01;66.55;101540.30;106578;1256;1003629;-39
2024/01/30 08:39:59;;;;;;;13.60;8.60;;;;;;;0.10;66.65;101532.84;107286;1255;60235;-39
2024/01/30 08:42:27;;;;;;;14.40;8.60;;;;;;;0.28;66.04;101527.91;103532;1255;1015634;-39
2024/01/30 08:44:56;;;;;;;12.00;8.90;;;;;;;0.39;65.50;101528.98;107260;1256;73876;-39
2024/01/30 08:47:23;;;;;;;14.70;9.20;;;;;;;0.46;65.69;101529.58;107314;1258;68925;-38
2024/01/30 08:49:51;;;;;;;13.70;8.80;;;;;;;0.52;64.87;101530.32;107300;1260;72699;-39
2024/01/30 08:52:18;;;;;;;14.70;9.50;;;;;;;0.55;64.79;101521.69;107393;1258;60483;-39
2024/01/30 08:54:46;;;;;;;13.60;9.40;;;;;;;0.62;64.58;101516.94;107291;1254;60869;-39
2024/01/30 08:57:14;;;;;;;12.00;8.30;;;;;;;0.71;64.98;101515.64;107298;1254;73953;-39
2024/01/30 08:59:44;;;;;;;13.90;8.80;;;;;;;0.77;65.05;101516.25;107320;1259;67820;-39
2024/01/30 09:02:12;;;;;;;;;;;;;;;0.92;64.12;101510.60;107484;1254;73175;-39
2024/01/30 09:04:40;;;;;;;9.00;6.80;;;;;;;1.01;63.55;101511.23;107293;1260;60283;-39
2024/01/30 09:07:09;;;;;;;13.60;9.30;;;;;;;1.01;63.48;101506.38;107373;1254;62239;-39
2024/01/30 09:09:42;;;;;;;8.60;6.60;;;;;;;1.06;63.65;101500.58;107415;1254;72125;-39
2024/01/30 09:12:11;;;;;;;11.70;8.40;;;;;;;1.15;63.56;101500.44;107381;1254;68546;-39
2024/01/30 09:14:40;;;;;;;;;;;;;;;1.23;63.38;101499.97;107409;1259;74694;-39
2024/01/30 09:17:08;;;;;;;12.20;8.40;;;;;;;1.33;63.32;101500.76;107359;1254;59677;-39
2024/01/30 09:19:36;;;;;;;13.80;9.20;;;;;;;1.42;62.73;101503.55;107349;1254;61929;-39
2024/01/30 09:22:04;;;;;;;11.40;8.50;;;;;;;1.46;62.23;101497.73;107319;1254;74051;-39
2024/01/30 09:24:31;;;;;;;12.10;8.10;;;;;;;1.48;62.20;101492.41;106642;1254;1003180;-39
2024/01/30 09:26:59;;;;;;;13.50;8.80;;;;;;;1.52;62.34;101492.67;107440;1257;71483;-39
2024/01/30 09:29:26;;;;;;;11.80;8.60;;;;;;;1.58;61.74;101483.77;107444;1254;60354;-39
2024/01/30 09:31:54;;;;;;;13.30;8.80;;;;;;;1.63;61.40;101480.96;107477;1259;60029;-39
2024/01/30 09:34:22;;;;;;;12.10;8.60;;;;;;;1.71;61.46;101476.46;107431;1259;72666;-39
2024/01/30 09:36:49;;;;;;;12.40;8.90;;;;;;;1.82;61.32;101471.29;107450;1254;68730;-39
2024/01/30 09:39:19;;;;;;;11.90;8.50;;;;;;;1.89;60.65;101464.46;107471;1256;74831;-39
2024/01/30 09:42:19;;;;;;;12.20;8.90;;;;;;;1.91;60.43;101460.10;107473;1254;60422;-39
2024/01/30 09:44:47;;;;;;;11.90;8.50;;;;;;;1.93;60.46;101453.33;107453;1254;60450;-39
2024/01/30 09:47:15;;;;;;;11.70;7.60;;;;;;;1.93;60.35;101455.20;107384;1254;73940;-39
2024/01/30 09:49:42;;;;;;;12.80;8.30;;;;;;;1.93;60.64;101454.77;106547;1254;1002785;-39
2024/01/30 09:52:10;;;;;;;12.60;7.50;;;;;;;1.97;60.17;101451.35;107387;1254;70511;-40
2024/01/30 09:54:38;;;;;;;11.00;8.00;;;;;;;2.06;60.20;101450.37;107394;1255;60488;-40
2024/01/30 09:57:07;;;;;;;12.70;8.40;;;;;;;2.12;59.73;101439.47;107382;1256;60472;-39
2024/01/30 09:59:34;;;;;;;11.50;8.00;;;;;;;2.20;60.42;101427.92;107429;1254;72648;-39
2024/01/30 10:02:04;;;;;;;11.50;8.20;;;;;;;2.27;59.18;101427.31;107457;1254;68725;-39
2024/01/30 10:04:32;;;;;;;10.90;8.00;;;;;;;2.30;59.14;101421.86;107419;1254;71317;-40
2024/01/30 10:07:02;;;;;;;11.20;8.20;;;;;;;2.34;59.29;101416.71;107304;1254;60328;-40
2024/01/30 10:09:31;;;;;;;;;;;;;;;2.39;59.29;101419.80;107363;1254;60312;-40
2024/01/30 10:12:01;;;;;;;10.60;7.50;;;;;;;2.48;59.28;101417.37;107429;1259;73659;-40
2024/01/30 10:14:29;;;;;;;12.40;8.00;;;;;;;2.63;59.23;101418.83;107414;1254;67256;-40
2024/01/30 10:16:57;;;;;;;12.80;8.40;;;;;;;2.79;58.77;101414.18;107303;1254;71798;-40
2024/01/30 10:19:25;;;;;;;14.00;8.20;;;;;;;2.93;57.92;101407.83;107416;1256;60422;-40
2024/01/30 10:21:53;;;;;;;12.70;8.20;;;;;;;2.98;57.21;101411.52;107446;1253;60540;-40
2024/01/30 10:24:24;;;;;;;12.00;8.40;;;;;;;3.01;57.16;101408.73;107429;1258;74051;-40
2024/01/30 10:26:55;;;;;;;12.20;8.90;;;;;;;3.07;57.61;101409.00;107424;1254;70596;-40
2024/01/30 10:29:23;;;;;;;11.30;8.50;;;;;;;3.13;57.50;101402.33;106660;1254;1002441;-40
2024/01/30 10:32:02;;;;;;;9.70;7.20;;;;;;;3.18;57.15;101404.05;107451;1254;60409;-40
2024/01/30 10:34:29;;;;;;;11.40;8.10;;;;;;;3.27;56.69;101404.38;107420;1254;60316;-40
2024/01/30 10:37:12;;;;;;;10.50;8.00;;;;;;;3.29;56.16;101398.91;107373;1259;71945;-40
2024/01/30 10:39:43;;;;;;;10.20;7.80;;;;;;;3.32;56.72;101394.75;107489;1254;67341;-40
2024/01/30 10:42:15;;;;;;;10.40;8.30;;;;;;;3.39;56.13;101390.22;107469;1254;71544;-40
2024/01/30 10:45:08;;;;;;;11.30;7.80;;;;;;;3.44;56.10;101389.29;107440;1254;60782;-40
2024/01/30 10:47:36;;;;;;;12.10;8.90;;;;;;;3.55;55.49;101386.37;106706;1254;1002923;-40
2024/01/30 10:50:05;;;;;;;10.20;7.70;;;;;;;3.66;55.50;101391.17;107426;1256;73940;-40
2024/01/30 10:52:33;;;;;;;10.50;7.40;;;;;;;3.71;55.35;101384.77;107411;1254;67719;-40
2024/01/30 10:55:01;;;;;;;11.00;7.90;;;;;;;3.79;55.27;101386.66;107286;1256;71481;-40
2024/01/30 10:57:29;;;;;;;11.20;8.50;;;;;;;3.85;55.07;101381.78;107255;1254;60415;-40
2024/01/30 10:59:58;;;;;;;10.90;8.00;;;;;;;3.92;54.67;101381.27;107311;1254;60192;-39
2024/01/30 11:02:25;;;;;;;10.70;7.00;;;;;;;4.01;54.57;101376.45;107417;1254;74051;-40
2024/01/30 11:04:57;;;;;;;10.00;7.40;;;;;;;4.09;54.57;101375.39;107378;1254;69001;-40
2024/01/30 11:07:27;;;;;;;10.60;7.90;;;;;;;4.16;54.39;101376.89;107479;1254;71347;-40
2024/01/30 11:09:58;;;;;;;11.70;8.30;;;;;;;4.21;54.26;101372.81;107434;1254;60409;-40
2024/01/30 11:12:26;;;;;;;11.40;7.70;;;;;;;4.31;53.65;101371.75;107459;1254;60322;-40